sensor_id;sensor_type;location;lat;lon;timestamp;pressure;altitude;pressure_sealevel;temperature;humidity
31717;BME280;18301;51.076;17.046;2023-02-23T00:02:33;100223.69;;;4.48;73.08
31717;BME280;18301;51.076;17.046;2023-02-23T00:07:34;100210.22;;;4.49;72.88
31717;BME280;18301;51.076;17.046;2023-02-23T00:12:36;100198.47;;;4.36;73.22
31717;BME280;18301;51.076;17.046;2023-02-23T00:17:38;100212.06;;;4.31;73.24
31717;BME280;18301;51.076;17.046;2023-02-23T00:22:41;100195.88;;;4.34;73.10
31717;BME280;18301;51.076;17.046;2023-02-23T00:27:43;100203.72;;;4.20;72.94
31717;BME280;18301;51.076;17.046;2023-02-23T00:32:46;100198.03;;;4.09;73.12
31717;BME280;18301;51.076;17.046;2023-02-23T00:37:48;100202.94;;;4.01;73.59
31717;BME280;18301;51.076;17.046;2023-02-23T00:42:49;100191.94;;;4.07;73.51
31717;BME280;18301;51.076;17.046;2023-02-23T00:47:52;100190.34;;;4.03;73.69
31717;BME280;18301;51.076;17.046;2023-02-23T00:52:55;100186.59;;;4.07;73.48
31717;BME280;18301;51.076;17.046;2023-02-23T00:57:59;100198.34;;;4.03;73.82
31717;BME280;18301;51.076;17.046;2023-02-23T01:03:01;100188.63;;;4.02;73.77
31717;BME280;18301;51.076;17.046;2023-02-23T01:08:02;100190.50;;;4.00;74.13
31717;BME280;18301;51.076;17.046;2023-02-23T01:13:04;100185.63;;;3.90;73.51
31717;BME280;18301;51.076;17.046;2023-02-23T01:18:06;100183.75;;;3.92;73.70
31717;BME280;18301;51.076;17.046;2023-02-23T01:23:09;100177.69;;;3.89;73.79
31717;BME280;18301;51.076;17.046;2023-02-23T01:28:12;100175.44;;;3.99;73.49
31717;BME280;18301;51.076;17.046;2023-02-23T01:33:14;100180.22;;;3.92;73.62
31717;BME280;18301;51.076;17.046;2023-02-23T01:38:16;100179.16;;;3.77;73.49
31717;BME280;18301;51.076;17.046;2023-02-23T01:43:20;100172.56;;;3.67;73.73
31717;BME280;18301;51.076;17.046;2023-02-23T01:48:29;100163.47;;;3.71;74.13
31717;BME280;18301;51.076;17.046;2023-02-23T01:53:37;100157.06;;;3.56;73.84
31717;BME280;18301;51.076;17.046;2023-02-23T01:58:45;100158.88;;;3.56;73.93
31717;BME280;18301;51.076;17.046;2023-02-23T02:04:13;100165.06;;;3.56;74.58
31717;BME280;18301;51.076;17.046;2023-02-23T02:09:16;100151.66;;;3.58;74.14
31717;BME280;18301;51.076;17.046;2023-02-23T02:14:26;100158.88;;;3.56;74.32
31717;BME280;18301;51.076;17.046;2023-02-23T02:25:07;100149.34;;;3.50;74.01
31717;BME280;18301;51.076;17.046;2023-02-23T02:30:26;100146.94;;;3.45;74.59
31717;BME280;18301;51.076;17.046;2023-02-23T02:41:16;100148.66;;;3.46;73.97
31717;BME280;18301;51.076;17.046;2023-02-23T02:46:23;100145.31;;;3.41;73.69
31717;BME280;18301;51.076;17.046;2023-02-23T02:56:37;100144.56;;;3.39;74.99
31717;BME280;18301;51.076;17.046;2023-02-23T03:01:40;100146.06;;;3.26;74.56
31717;BME280;18301;51.076;17.046;2023-02-23T03:07:07;100141.31;;;3.14;74.72
31717;BME280;18301;51.076;17.046;2023-02-23T03:12:39;100143.63;;;3.21;74.93
31717;BME280;18301;51.076;17.046;2023-02-23T03:18:24;100146.97;;;3.27;74.82
31717;BME280;18301;51.076;17.046;2023-02-23T03:24:01;100133.69;;;3.25;74.67
31717;BME280;18301;51.076;17.046;2023-02-23T03:35:27;100131.97;;;3.24;75.18
31717;BME280;18301;51.076;17.046;2023-02-23T03:40:53;100125.31;;;3.14;75.02
31717;BME280;18301;51.076;17.046;2023-02-23T03:46:15;100137.28;;;3.24;75.21
31717;BME280;18301;51.076;17.046;2023-02-23T03:51:38;100132.25;;;3.18;74.77
31717;BME280;18301;51.076;17.046;2023-02-23T03:57:04;100127.97;;;3.14;74.53
31717;BME280;18301;51.076;17.046;2023-02-23T04:02:26;100142.47;;;3.27;75.37
31717;BME280;18301;51.076;17.046;2023-02-23T04:07:48;100134.41;;;3.10;75.41
31717;BME280;18301;51.076;17.046;2023-02-23T04:13:17;100126.22;;;3.14;75.22
31717;BME280;18301;51.076;17.046;2023-02-23T04:18:23;100130.22;;;3.04;76.38
31717;BME280;18301;51.076;17.046;2023-02-23T04:23:26;100117.47;;;3.11;75.95
31717;BME280;18301;51.076;17.046;2023-02-23T04:28:28;100113.03;;;3.11;76.47
31717;BME280;18301;51.076;17.046;2023-02-23T04:33:29;100122.16;;;3.06;75.92
31717;BME280;18301;51.076;17.046;2023-02-23T04:38:31;100122.16;;;3.06;76.46
31717;BME280;18301;51.076;17.046;2023-02-23T04:43:32;100121.75;;;2.96;77.21
31717;BME280;18301;51.076;17.046;2023-02-23T04:48:34;100109.34;;;2.95;77.51
31717;BME280;18301;51.076;17.046;2023-02-23T04:53:36;100113.38;;;3.04;77.00
31717;BME280;18301;51.076;17.046;2023-02-23T04:58:38;100117.75;;;3.05;77.13
31717;BME280;18301;51.076;17.046;2023-02-23T05:03:40;100109.56;;;3.09;77.17
31717;BME280;18301;51.076;17.046;2023-02-23T05:08:41;100115.41;;;3.17;76.60
31717;BME280;18301;51.076;17.046;2023-02-23T05:13:43;100111.84;;;3.17;76.77
31717;BME280;18301;51.076;17.046;2023-02-23T05:18:44;100104.13;;;3.11;76.76
31717;BME280;18301;51.076;17.046;2023-02-23T05:23:46;100105.00;;;2.92;77.52
31717;BME280;18301;51.076;17.046;2023-02-23T05:28:48;100104.81;;;2.97;77.78
31717;BME280;18301;51.076;17.046;2023-02-23T05:33:49;100106.47;;;2.99;77.56
31717;BME280;18301;51.076;17.046;2023-02-23T05:38:51;100107.19;;;2.84;78.18
31717;BME280;18301;51.076;17.046;2023-02-23T05:43:54;100105.09;;;3.10;77.28
31717;BME280;18301;51.076;17.046;2023-02-23T05:48:57;100110.03;;;2.98;78.38
31717;BME280;18301;51.076;17.046;2023-02-23T05:54:00;100114.16;;;3.06;78.11
31717;BME280;18301;51.076;17.046;2023-02-23T05:59:02;100106.50;;;3.17;77.52
31717;BME280;18301;51.076;17.046;2023-02-23T06:04:05;100116.84;;;3.06;77.84
31717;BME280;18301;51.076;17.046;2023-02-23T06:09:06;100110.00;;;3.00;78.23
31717;BME280;18301;51.076;17.046;2023-02-23T06:14:08;100113.22;;;3.07;78.22
31717;BME280;18301;51.076;17.046;2023-02-23T06:19:10;100113.31;;;3.05;78.01
31717;BME280;18301;51.076;17.046;2023-02-23T06:24:12;100118.25;;;3.13;78.20
31717;BME280;18301;51.076;17.046;2023-02-23T06:29:13;100110.13;;;2.97;78.69
31717;BME280;18301;51.076;17.046;2023-02-23T06:34:15;100108.75;;;3.07;77.93
31717;BME280;18301;51.076;17.046;2023-02-23T06:39:17;100124.19;;;3.00;78.98
31717;BME280;18301;51.076;17.046;2023-02-23T06:44:18;100117.13;;;2.99;78.53
31717;BME280;18301;51.076;17.046;2023-02-23T06:49:20;100113.38;;;3.04;79.06
31717;BME280;18301;51.076;17.046;2023-02-23T06:54:21;100103.97;;;3.14;78.99
31717;BME280;18301;51.076;17.046;2023-02-23T06:59:23;100117.91;;;3.20;78.83
31717;BME280;18301;51.076;17.046;2023-02-23T07:04:25;100114.06;;;3.26;79.15
31717;BME280;18301;51.076;17.046;2023-02-23T07:09:26;100100.78;;;3.43;78.48
31717;BME280;18301;51.076;17.046;2023-02-23T07:14:31;100106.25;;;3.40;78.09
31717;BME280;18301;51.076;17.046;2023-02-23T07:19:33;100101.22;;;3.34;79.04
31717;BME280;18301;51.076;17.046;2023-02-23T07:24:35;100104.69;;;3.36;78.46
31717;BME280;18301;51.076;17.046;2023-02-23T07:29:36;100102.03;;;3.54;77.56
31717;BME280;18301;51.076;17.046;2023-02-23T07:34:38;100095.75;;;3.37;78.95
31717;BME280;18301;51.076;17.046;2023-02-23T07:39:40;100102.34;;;3.47;79.21
31717;BME280;18301;51.076;17.046;2023-02-23T07:44:41;100085.44;;;3.83;78.06
31717;BME280;18301;51.076;17.046;2023-02-23T07:49:42;100088.34;;;3.96;77.25
31717;BME280;18301;51.076;17.046;2023-02-23T07:54:44;100085.13;;;4.07;77.43
31717;BME280;18301;51.076;17.046;2023-02-23T07:59:46;100082.72;;;4.35;76.86
31717;BME280;18301;51.076;17.046;2023-02-23T08:04:48;100079.41;;;4.48;76.12
31717;BME280;18301;51.076;17.046;2023-02-23T08:09:50;100070.59;;;4.46;76.60
31717;BME280;18301;51.076;17.046;2023-02-23T08:14:51;100076.47;;;4.52;76.87
31717;BME280;18301;51.076;17.046;2023-02-23T08:19:54;100075.56;;;4.69;76.28
31717;BME280;18301;51.076;17.046;2023-02-23T08:24:55;100072.72;;;4.72;75.91
31717;BME280;18301;51.076;17.046;2023-02-23T08:29:57;100079.66;;;5.08;75.45
31717;BME280;18301;51.076;17.046;2023-02-23T08:35:01;100075.06;;;5.26;74.61
31717;BME280;18301;51.076;17.046;2023-02-23T08:40:06;100071.47;;;5.57;73.75
31717;BME280;18301;51.076;17.046;2023-02-23T08:45:08;100069.66;;;5.88;73.49
31717;BME280;18301;51.076;17.046;2023-02-23T08:50:11;100070.34;;;6.07;72.51
31717;BME280;18301;51.076;17.046;2023-02-23T08:55:13;100068.97;;;6.00;73.43
31717;BME280;18301;51.076;17.046;2023-02-23T09:00:17;100066.09;;;6.03;72.87
31717;BME280;18301;51.076;17.046;2023-02-23T09:05:18;100067.88;;;6.33;72.91
31717;BME280;18301;51.076;17.046;2023-02-23T09:10:20;100063.84;;;6.54;71.85
31717;BME280;18301;51.076;17.046;2023-02-23T09:15:25;100057.81;;;6.65;72.43
31717;BME280;18301;51.076;17.046;2023-02-23T09:20:26;100059.44;;;6.96;72.41
31717;BME280;18301;51.076;17.046;2023-02-23T09:25:28;100053.66;;;7.02;71.56
31717;BME280;18301;51.076;17.046;2023-02-23T09:30:31;100045.53;;;7.31;71.14
31717;BME280;18301;51.076;17.046;2023-02-23T09:35:33;100043.53;;;7.47;71.48
31717;BME280;18301;51.076;17.046;2023-02-23T09:40:50;100041.22;;;7.55;71.36
31717;BME280;18301;51.076;17.046;2023-02-23T09:51:05;100033.50;;;7.64;70.77
31717;BME280;18301;51.076;17.046;2023-02-23T09:56:27;100029.44;;;7.71;70.92
31717;BME280;18301;51.076;17.046;2023-02-23T10:12:41;100024.66;;;8.14;70.30
31717;BME280;18301;51.076;17.046;2023-02-23T10:17:58;100023.25;;;8.34;70.01
31717;BME280;18301;51.076;17.046;2023-02-23T10:23:07;100011.97;;;8.29;69.24
31717;BME280;18301;51.076;17.046;2023-02-23T10:28:15;100015.31;;;8.45;69.37
31717;BME280;18301;51.076;17.046;2023-02-23T10:33:21;100005.19;;;8.36;70.01
31717;BME280;18301;51.076;17.046;2023-02-23T10:38:25;100006.25;;;8.46;69.74
31717;BME280;18301;51.076;17.046;2023-02-23T10:43:26;99996.56;;;8.31;69.68
31717;BME280;18301;51.076;17.046;2023-02-23T10:48:34;99989.03;;;8.36;70.04
31717;BME280;18301;51.076;17.046;2023-02-23T10:53:37;99982.69;;;8.37;69.82
31717;BME280;18301;51.076;17.046;2023-02-23T10:58:51;99978.09;;;8.39;69.98
31717;BME280;18301;51.076;17.046;2023-02-23T11:03:53;99972.28;;;8.45;70.05
31717;BME280;18301;51.076;17.046;2023-02-23T11:09:21;99958.50;;;8.63;70.03
31717;BME280;18301;51.076;17.046;2023-02-23T11:14:42;99956.59;;;8.39;70.54
31717;BME280;18301;51.076;17.046;2023-02-23T11:19:44;99953.13;;;8.63;70.03
31717;BME280;18301;51.076;17.046;2023-02-23T11:24:46;99946.22;;;8.59;70.90
31717;BME280;18301;51.076;17.046;2023-02-23T11:29:49;99939.44;;;8.66;70.98
31717;BME280;18301;51.076;17.046;2023-02-23T11:40:30;99928.41;;;9.06;70.69
31717;BME280;18301;51.076;17.046;2023-02-23T11:45:38;99925.44;;;9.21;70.30
31717;BME280;18301;51.076;17.046;2023-02-23T11:50:45;99918.28;;;9.44;70.22
31717;BME280;18301;51.076;17.046;2023-02-23T11:55:50;99914.25;;;9.50;70.13
31717;BME280;18301;51.076;17.046;2023-02-23T12:01:04;99898.97;;;9.62;70.70
31717;BME280;18301;51.076;17.046;2023-02-23T12:06:24;99902.94;;;9.80;70.63
31717;BME280;18301;51.076;17.046;2023-02-23T12:11:31;99897.31;;;10.06;70.54
31717;BME280;18301;51.076;17.046;2023-02-23T12:16:40;99891.72;;;10.31;69.86
31717;BME280;18301;51.076;17.046;2023-02-23T12:21:52;99886.56;;;10.28;69.17
31717;BME280;18301;51.076;17.046;2023-02-23T12:27:00;99874.16;;;10.26;70.27
31717;BME280;18301;51.076;17.046;2023-02-23T12:32:07;99863.00;;;10.30;70.16
31717;BME280;18301;51.076;17.046;2023-02-23T12:37:25;99862.00;;;10.43;69.46
31717;BME280;18301;51.076;17.046;2023-02-23T12:42:39;99863.22;;;10.50;69.64
31717;BME280;18301;51.076;17.046;2023-02-23T12:48:03;99850.56;;;10.62;69.83
31717;BME280;18301;51.076;17.046;2023-02-23T12:58:43;99846.38;;;11.01;69.18
31717;BME280;18301;51.076;17.046;2023-02-23T13:08:59;99830.16;;;11.01;69.55
31717;BME280;18301;51.076;17.046;2023-02-23T13:14:37;99831.81;;;11.13;69.81
31717;BME280;18301;51.076;17.046;2023-02-23T13:19:51;99829.88;;;11.15;69.89
31717;BME280;18301;51.076;17.046;2023-02-23T13:24:57;99821.50;;;11.18;69.73
31717;BME280;18301;51.076;17.046;2023-02-23T13:30:09;99820.13;;;11.24;69.45
31717;BME280;18301;51.076;17.046;2023-02-23T13:35:16;99818.19;;;11.36;69.52
31717;BME280;18301;51.076;17.046;2023-02-23T13:40:24;99801.78;;;11.48;69.65
31717;BME280;18301;51.076;17.046;2023-02-23T13:45:40;99803.81;;;11.56;70.11
31717;BME280;18301;51.076;17.046;2023-02-23T13:50:51;99800.09;;;11.57;69.61
31717;BME280;18301;51.076;17.046;2023-02-23T13:55:58;99802.69;;;11.59;68.65
31717;BME280;18301;51.076;17.046;2023-02-23T14:06:30;99795.66;;;11.77;68.81
31717;BME280;18301;51.076;17.046;2023-02-23T14:11:46;99790.84;;;11.81;68.76
31717;BME280;18301;51.076;17.046;2023-02-23T14:17:08;99795.97;;;11.84;68.67
31717;BME280;18301;51.076;17.046;2023-02-23T14:22:15;99793.03;;;11.66;68.61
31717;BME280;18301;51.076;17.046;2023-02-23T14:27:32;99781.66;;;11.62;68.76
31717;BME280;18301;51.076;17.046;2023-02-23T14:32:44;99780.22;;;11.58;68.67
31717;BME280;18301;51.076;17.046;2023-02-23T14:37:55;99786.69;;;11.46;68.35
31717;BME280;18301;51.076;17.046;2023-02-23T14:43:01;99779.28;;;11.48;68.70
31717;BME280;18301;51.076;17.046;2023-02-23T14:48:10;99778.34;;;11.28;69.15
31717;BME280;18301;51.076;17.046;2023-02-23T14:53:20;99779.66;;;11.34;68.86
31717;BME280;18301;51.076;17.046;2023-02-23T14:58:23;99773.31;;;11.23;69.18
31717;BME280;18301;51.076;17.046;2023-02-23T15:03:26;99776.19;;;11.22;69.11
31717;BME280;18301;51.076;17.046;2023-02-23T15:08:28;99763.59;;;11.11;69.88
31717;BME280;18301;51.076;17.046;2023-02-23T15:13:40;99765.59;;;11.09;69.72
31717;BME280;18301;51.076;17.046;2023-02-23T15:18:43;99758.59;;;11.06;69.09
31717;BME280;18301;51.076;17.046;2023-02-23T15:23:50;99756.88;;;10.85;69.93
31717;BME280;18301;51.076;17.046;2023-02-23T15:28:52;99753.50;;;10.71;70.29
31717;BME280;18301;51.076;17.046;2023-02-23T15:33:53;99744.47;;;10.61;70.66
31717;BME280;18301;51.076;17.046;2023-02-23T15:38:58;99739.28;;;10.69;70.22
31717;BME280;18301;51.076;17.046;2023-02-23T15:44:22;99737.75;;;10.55;70.45
31717;BME280;18301;51.076;17.046;2023-02-23T15:49:31;99739.13;;;10.50;71.03
31717;BME280;18301;51.076;17.046;2023-02-23T15:54:51;99730.84;;;10.42;70.98
31717;BME280;18301;51.076;17.046;2023-02-23T16:00:00;99733.31;;;10.33;71.60
31717;BME280;18301;51.076;17.046;2023-02-23T16:05:24;99730.38;;;10.25;71.91
31717;BME280;18301;51.076;17.046;2023-02-23T16:10:41;99723.16;;;10.14;71.55
31717;BME280;18301;51.076;17.046;2023-02-23T16:15:43;99723.56;;;10.10;72.09
31717;BME280;18301;51.076;17.046;2023-02-23T16:20:50;99725.63;;;10.06;72.33
31717;BME280;18301;51.076;17.046;2023-02-23T16:25:59;99717.59;;;9.95;72.50
31717;BME280;18301;51.076;17.046;2023-02-23T16:31:05;99719.19;;;9.86;73.01
31717;BME280;18301;51.076;17.046;2023-02-23T16:36:13;99717.50;;;9.85;73.25
31717;BME280;18301;51.076;17.046;2023-02-23T16:41:20;99719.19;;;9.75;73.62
31717;BME280;18301;51.076;17.046;2023-02-23T16:46:23;99722.41;;;9.58;74.73
31717;BME280;18301;51.076;17.046;2023-02-23T16:51:26;99714.59;;;9.55;74.82
31717;BME280;18301;51.076;17.046;2023-02-23T16:56:27;99720.94;;;9.31;75.79
31717;BME280;18301;51.076;17.046;2023-02-23T17:01:30;99716.66;;;9.40;75.87
31717;BME280;18301;51.076;17.046;2023-02-23T17:06:32;99720.44;;;9.26;75.78
31717;BME280;18301;51.076;17.046;2023-02-23T17:11:33;99717.75;;;9.15;76.35
31717;BME280;18301;51.076;17.046;2023-02-23T17:16:35;99722.63;;;9.10;76.81
31717;BME280;18301;51.076;17.046;2023-02-23T17:21:37;99720.56;;;9.13;76.82
31717;BME280;18301;51.076;17.046;2023-02-23T17:26:39;99717.41;;;9.08;77.39
31717;BME280;18301;51.076;17.046;2023-02-23T17:31:42;99715.78;;;9.06;77.71
31717;BME280;18301;51.076;17.046;2023-02-23T17:36:44;99719.81;;;9.00;77.89
31717;BME280;18301;51.076;17.046;2023-02-23T17:41:45;99719.81;;;9.00;78.29
31717;BME280;18301;51.076;17.046;2023-02-23T17:46:47;99715.78;;;8.94;78.72
31717;BME280;18301;51.076;17.046;2023-02-23T17:51:49;99707.44;;;8.86;78.81
31717;BME280;18301;51.076;17.046;2023-02-23T17:56:50;99705.72;;;8.85;79.17
31717;BME280;18301;51.076;17.046;2023-02-23T18:01:52;99706.19;;;8.79;79.92
31717;BME280;18301;51.076;17.046;2023-02-23T18:06:53;99699.72;;;8.82;80.14
31717;BME280;18301;51.076;17.046;2023-02-23T18:11:56;99695.22;;;8.93;80.27
31717;BME280;18301;51.076;17.046;2023-02-23T18:16:58;99687.63;;;8.98;80.16
31717;BME280;18301;51.076;17.046;2023-02-23T18:22:00;99683.72;;;8.91;80.15
31717;BME280;18301;51.076;17.046;2023-02-23T18:27:01;99677.84;;;8.75;81.18
31717;BME280;18301;51.076;17.046;2023-02-23T18:32:04;99689.16;;;8.67;81.63
31717;BME280;18301;51.076;17.046;2023-02-23T18:37:08;99682.19;;;8.65;81.59
31717;BME280;18301;51.076;17.046;2023-02-23T18:42:10;99680.38;;;8.76;82.13
31717;BME280;18301;51.076;17.046;2023-02-23T18:47:11;99683.22;;;8.75;82.03
31717;BME280;18301;51.076;17.046;2023-02-23T18:52:13;99683.94;;;8.77;82.25
31717;BME280;18301;51.076;17.046;2023-02-23T18:57:14;99679.06;;;8.82;82.14
31717;BME280;18301;51.076;17.046;2023-02-23T19:02:16;99681.25;;;8.77;82.76
31717;BME280;18301;51.076;17.046;2023-02-23T19:07:19;99681.38;;;8.75;82.99
31717;BME280;18301;51.076;17.046;2023-02-23T19:12:20;99671.34;;;8.78;83.13
31717;BME280;18301;51.076;17.046;2023-02-23T19:17:23;99669.63;;;8.76;83.30
31717;BME280;18301;51.076;17.046;2023-02-23T19:22:26;99669.25;;;8.70;83.63
31717;BME280;18301;51.076;17.046;2023-02-23T19:27:28;99667.78;;;8.66;83.86
31717;BME280;18301;51.076;17.046;2023-02-23T19:32:29;99659.34;;;8.70;83.71
31717;BME280;18301;51.076;17.046;2023-02-23T19:37:31;99663.63;;;8.73;83.55
31717;BME280;18301;51.076;17.046;2023-02-23T19:42:33;99662.16;;;8.69;83.88
31717;BME280;18301;51.076;17.046;2023-02-23T19:47:35;99670.72;;;8.74;83.84
31717;BME280;18301;51.076;17.046;2023-02-23T19:52:36;99668.41;;;8.69;83.78
31717;BME280;18301;51.076;17.046;2023-02-23T19:57:39;99664.13;;;8.67;83.89
31717;BME280;18301;51.076;17.046;2023-02-23T20:02:40;99662.75;;;8.50;84.66
31717;BME280;18301;51.076;17.046;2023-02-23T20:07:44;99654.16;;;8.45;84.50
31717;BME280;18301;51.076;17.046;2023-02-23T20:12:46;99664.69;;;8.48;84.20
31717;BME280;18301;51.076;17.046;2023-02-23T20:17:47;99655.00;;;8.45;84.38
31717;BME280;18301;51.076;17.046;2023-02-23T20:22:51;99658.69;;;8.44;84.71
31717;BME280;18301;51.076;17.046;2023-02-23T20:27:53;99650.78;;;8.65;84.20
31717;BME280;18301;51.076;17.046;2023-02-23T20:32:55;99640.88;;;8.66;83.98
31717;BME280;18301;51.076;17.046;2023-02-23T20:37:58;99643.31;;;8.58;84.72
31717;BME280;18301;51.076;17.046;2023-02-23T20:42:59;99629.66;;;8.72;84.34
31717;BME280;18301;51.076;17.046;2023-02-23T20:48:00;99627.19;;;8.80;84.11
31717;BME280;18301;51.076;17.046;2023-02-23T20:53:04;99625.88;;;8.86;83.77
31717;BME280;18301;51.076;17.046;2023-02-23T20:58:05;99620.84;;;8.92;83.68
31717;BME280;18301;51.076;17.046;2023-02-23T21:03:08;99616.22;;;9.06;83.53
31717;BME280;18301;51.076;17.046;2023-02-23T21:08:10;99606.66;;;9.13;83.14
31717;BME280;18301;51.076;17.046;2023-02-23T21:13:11;99613.25;;;9.20;82.62
31717;BME280;18301;51.076;17.046;2023-02-23T21:18:13;99610.56;;;9.20;82.83
31717;BME280;18301;51.076;17.046;2023-02-23T21:23:14;99604.22;;;9.21;82.56
31717;BME280;18301;51.076;17.046;2023-02-23T21:28:18;99611.41;;;9.32;82.38
31717;BME280;18301;51.076;17.046;2023-02-23T21:33:21;99594.25;;;9.33;82.27
31717;BME280;18301;51.076;17.046;2023-02-23T21:38:24;99593.66;;;9.40;82.39
31717;BME280;18301;51.076;17.046;2023-02-23T21:43:25;99590.47;;;9.47;81.80
31717;BME280;18301;51.076;17.046;2023-02-23T21:48:28;99588.72;;;9.57;81.60
31717;BME280;18301;51.076;17.046;2023-02-23T21:53:30;99577.94;;;9.57;81.35
31717;BME280;18301;51.076;17.046;2023-02-23T21:58:32;99575.25;;;9.57;81.13
31717;BME280;18301;51.076;17.046;2023-02-23T22:03:33;99578.41;;;9.62;81.26
31717;BME280;18301;51.076;17.046;2023-02-23T22:08:35;99571.19;;;9.62;81.16
31717;BME280;18301;51.076;17.046;2023-02-23T22:13:36;99564.69;;;9.65;80.82
31717;BME280;18301;51.076;17.046;2023-02-23T22:18:38;99565.69;;;9.64;80.82
31717;BME280;18301;51.076;17.046;2023-02-23T22:23:41;99559.66;;;9.72;80.35
31717;BME280;18301;51.076;17.046;2023-02-23T22:28:44;99558.13;;;9.58;80.29
31717;BME280;18301;51.076;17.046;2023-02-23T22:33:45;99549.72;;;9.72;80.11
31717;BME280;18301;51.076;17.046;2023-02-23T22:38:47;99550.03;;;9.58;80.63
31717;BME280;18301;51.076;17.046;2023-02-23T22:43:49;99549.03;;;9.59;80.35
31717;BME280;18301;51.076;17.046;2023-02-23T22:48:50;99542.81;;;9.58;80.63
31717;BME280;18301;51.076;17.046;2023-02-23T22:53:52;99538.53;;;9.56;80.38
31717;BME280;18301;51.076;17.046;2023-02-23T22:58:54;99538.75;;;9.64;80.33
31717;BME280;18301;51.076;17.046;2023-02-23T23:03:56;99529.72;;;9.54;80.27
31717;BME280;18301;51.076;17.046;2023-02-23T23:08:57;99535.66;;;9.68;80.09
31717;BME280;18301;51.076;17.046;2023-02-23T23:13:59;99527.75;;;9.56;80.18
31717;BME280;18301;51.076;17.046;2023-02-23T23:19:08;99524.81;;;9.59;80.06
31717;BME280;18301;51.076;17.046;2023-02-23T23:24:13;99516.13;;;9.55;80.37
31717;BME280;18301;51.076;17.046;2023-02-23T23:29:15;99507.19;;;9.55;80.55
31717;BME280;18301;51.076;17.046;2023-02-23T23:34:18;99504.31;;;9.67;79.79
31717;BME280;18301;51.076;17.046;2023-02-23T23:39:23;99502.16;;;9.61;79.93
31717;BME280;18301;51.076;17.046;2023-02-23T23:44:26;99496.03;;;9.59;80.29
31717;BME280;18301;51.076;17.046;2023-02-23T23:49:34;99489.47;;;9.52;80.34
31717;BME280;18301;51.076;17.046;2023-02-23T23:54:39;99480.03;;;9.47;80.61
31717;BME280;18301;51.076;17.046;2023-02-23T23:59:42;99476.44;;;9.57;80.65
